createdAt,value
2023-05-07T00:00:36.797Z,93576.05
2023-05-07T00:05:43.702Z,93568.78
2023-05-07T00:10:50.821Z,93564.66
2023-05-07T00:15:57.725Z,93562.13
2023-05-07T00:21:04.721Z,93573.41
2023-05-07T00:26:11.698Z,93574.03
2023-05-07T00:31:18.830Z,93578.30
2023-05-07T00:36:27.749Z,93577.15
2023-05-07T00:41:34.578Z,93571.66
2023-05-07T00:46:41.755Z,93572.58
2023-05-07T00:51:49.490Z,93568.27
2023-05-07T00:56:57.340Z,93564.41
2023-05-07T01:02:05.190Z,93562.66
2023-05-07T01:07:13.243Z,93559.66
2023-05-07T01:12:20.665Z,93554.44
2023-05-07T01:17:28.291Z,93545.57
2023-05-07T01:22:38.790Z,93542.81
2023-05-07T01:27:46.154Z,93539.58
2023-05-07T01:33:06.405Z,93541.08
2023-05-07T01:38:13.642Z,93542.33
2023-05-07T01:43:21.600Z,93538.20
2023-05-07T01:48:28.876Z,93540.39
2023-05-07T01:53:43.069Z,93535.53
2023-05-07T01:58:50.295Z,93529.43
2023-05-07T02:03:57.730Z,93535.90
2023-05-07T02:09:04.929Z,93527.13
2023-05-07T02:14:11.689Z,93539.94
2023-05-07T02:19:19.551Z,93520.89
2023-05-07T02:24:26.543Z,93515.67
2023-05-07T02:29:34.121Z,93544.97
2023-05-07T02:34:40.911Z,93529.71
2023-05-07T02:39:47.793Z,93521.59
2023-05-07T02:44:55.706Z,93528.88
2023-05-07T02:50:05.324Z,93529.42
2023-05-07T02:55:12.699Z,93517.77
2023-05-07T03:00:47.008Z,93534.69
2023-05-07T03:05:54.318Z,93519.98
2023-05-07T03:11:01.193Z,93516.39
2023-05-07T03:16:08.939Z,93513.34
2023-05-07T03:21:16.284Z,93510.66
2023-05-07T03:26:23.233Z,93517.92
2023-05-07T03:31:30.639Z,93522.17
2023-05-07T03:36:37.749Z,93524.58
2023-05-07T03:41:44.597Z,93533.89
2023-05-07T03:46:51.966Z,93528.76
2023-05-07T03:51:59.428Z,93538.03
2023-05-07T03:57:06.152Z,93534.92
2023-05-07T04:02:14.702Z,93541.00
2023-05-07T04:07:21.931Z,93548.64
2023-05-07T04:12:28.876Z,93546.06
2023-05-07T04:17:35.925Z,93542.09
2023-05-07T04:22:43.622Z,93549.07
2023-05-07T04:27:50.386Z,93547.14
2023-05-07T04:32:58.567Z,93554.23
2023-05-07T04:38:05.481Z,93558.55
2023-05-07T04:43:12.858Z,93553.77
2023-05-07T04:48:21.708Z,93557.76
2023-05-07T04:53:29.934Z,93564.87
2023-05-07T04:58:36.981Z,93569.00
2023-05-07T05:03:43.839Z,93571.24
2023-05-07T05:08:50.699Z,93572.03
2023-05-07T05:13:57.577Z,93574.62
2023-05-07T05:19:06.109Z,93578.16
2023-05-07T05:24:13.087Z,93575.39
2023-05-07T05:29:20.044Z,93585.13
2023-05-07T05:34:27.567Z,93589.39
2023-05-07T05:39:34.519Z,93590.16
2023-05-07T05:44:41.506Z,93598.94
2023-05-07T05:49:48.837Z,93601.84
2023-05-07T05:54:56.457Z,93598.75
2023-05-07T06:00:05.349Z,93601.28
2023-05-07T06:05:12.723Z,93599.77
2023-05-07T06:10:19.673Z,93598.20
2023-05-07T06:15:26.973Z,93607.73
2023-05-07T06:20:34.846Z,93610.03
2023-05-07T06:25:41.748Z,93607.79
2023-05-07T06:30:50.261Z,93612.83
2023-05-07T06:35:57.259Z,93604.05
2023-05-07T06:41:05.366Z,93614.05
2023-05-07T06:46:12.424Z,93619.88
2023-05-07T06:51:19.380Z,93624.69
2023-05-07T06:56:26.354Z,93635.65
2023-05-07T07:01:33.610Z,93637.90
2023-05-07T07:06:40.448Z,93641.17
2023-05-07T07:11:47.257Z,93643.61
2023-05-07T07:16:54.088Z,93646.46
2023-05-07T07:22:00.960Z,93654.16
2023-05-07T07:27:08.040Z,93647.91
2023-05-07T07:32:14.979Z,93642.64
2023-05-07T07:37:22.169Z,93648.20
2023-05-07T07:42:30.418Z,93646.78
2023-05-07T07:47:37.256Z,93643.39
2023-05-07T07:52:44.108Z,93648.62
2023-05-07T07:57:52.843Z,93637.53
2023-05-07T08:02:59.797Z,93651.73
2023-05-07T08:08:07.532Z,93642.05
2023-05-07T08:13:16.966Z,93641.44
2023-05-07T08:18:25.456Z,93645.13
2023-05-07T08:23:32.252Z,93644.61
2023-05-07T08:28:39.097Z,93646.11
2023-05-07T08:33:46.526Z,93646.34
2023-05-07T08:38:53.461Z,93637.07
2023-05-07T08:44:02.195Z,93640.92
2023-05-07T08:49:09.764Z,93634.61
2023-05-07T08:54:21.370Z,93628.83
2023-05-07T08:59:28.635Z,93627.33
2023-05-07T09:04:35.331Z,93639.13
2023-05-07T09:09:42.437Z,93631.83
2023-05-07T09:14:49.296Z,93628.14
2023-05-07T09:19:56.754Z,93630.77
2023-05-07T09:25:04.619Z,93641.78
2023-05-07T09:30:12.257Z,93634.54
2023-05-07T09:35:21.824Z,93635.33
2023-05-07T09:40:33.439Z,93645.29
2023-05-07T09:45:40.318Z,93635.83
2023-05-07T09:50:55.788Z,93638.89
2023-05-07T09:56:05.022Z,93632.64
2023-05-07T10:01:13.959Z,93619.77
2023-05-07T10:06:22.824Z,93626.39
2023-05-07T10:11:30.542Z,93629.24
2023-05-07T10:16:39.672Z,93624.58
2023-05-07T10:21:58.127Z,93629.00
2023-05-07T10:27:15.680Z,93627.56
2023-05-07T10:32:39.063Z,93614.78
2023-05-07T10:37:47.640Z,93614.34
2023-05-07T10:43:10.576Z,93616.36
2023-05-07T10:53:30.113Z,93604.09
2023-05-07T10:58:39.109Z,93600.52
2023-05-07T11:04:19.154Z,93601.85
2023-05-07T11:09:26.258Z,93601.89
2023-05-07T11:14:49.046Z,93592.17
2023-05-07T11:19:58.254Z,93593.19
2023-05-07T11:25:07.113Z,93590.03
2023-05-07T11:30:18.216Z,93595.33
2023-05-07T11:35:27.364Z,93584.52
2023-05-07T11:40:35.481Z,93580.14
2023-05-07T11:45:42.308Z,93588.29
2023-05-07T11:50:58.574Z,93576.34
2023-05-07T11:56:11.624Z,93570.26
2023-05-07T12:01:18.485Z,93571.04
2023-05-07T12:06:25.351Z,93580.03
2023-05-07T12:11:32.339Z,93579.68
2023-05-07T12:16:41.096Z,93580.30
2023-05-07T12:21:48.738Z,93594.97
2023-05-07T12:26:56.131Z,93590.09
2023-05-07T12:32:04.669Z,93584.05
2023-05-07T12:37:11.822Z,93593.34
2023-05-07T12:42:27.606Z,93614.36
2023-05-07T12:47:34.822Z,93625.30
2023-05-07T12:52:42.426Z,93619.50
2023-05-07T12:57:53.164Z,93633.34
2023-05-07T13:03:01.783Z,93630.19
2023-05-07T13:08:10.191Z,93629.69
2023-05-07T13:13:17.436Z,93640.81
2023-05-07T13:18:24.584Z,93628.36
2023-05-07T13:23:32.127Z,93638.58
2023-05-07T13:28:38.952Z,93636.20
2023-05-07T13:33:46.074Z,93642.52
2023-05-07T13:38:54.250Z,93648.20
2023-05-07T13:44:01.164Z,93658.77
2023-05-07T13:49:08.136Z,93669.83
2023-05-07T13:54:14.943Z,93677.22
2023-05-07T13:59:21.795Z,93666.56
2023-05-07T14:04:28.676Z,93655.71
2023-05-07T14:09:35.631Z,93639.38
2023-05-07T14:14:42.583Z,93646.16
2023-05-07T14:19:49.354Z,93655.53
2023-05-07T14:25:14.178Z,93650.17
2023-05-07T14:30:06.125Z,93662.22
2023-05-07T14:35:13.062Z,93478.88
2023-05-07T14:40:20.083Z,93659.16
2023-05-07T14:45:27.184Z,93652.32
2023-05-07T14:50:34.108Z,93642.19
2023-05-07T14:55:41.428Z,93637.90
2023-05-07T15:00:50.497Z,93645.03
2023-05-07T15:05:57.449Z,93651.95
2023-05-07T15:11:05.236Z,93654.59
2023-05-07T15:16:12.514Z,93660.84
2023-05-07T15:21:20.136Z,93665.74
2023-05-07T15:26:26.999Z,93666.58
2023-05-07T15:31:34.056Z,93662.03
2023-05-07T15:36:40.937Z,93648.89
2023-05-07T15:41:47.955Z,93654.23
2023-05-07T15:46:54.976Z,93660.80
2023-05-07T15:52:02.673Z,93651.45
2023-05-07T15:57:10.447Z,93661.79
2023-05-07T16:02:17.890Z,93674.00
2023-05-07T16:07:25.819Z,93669.22
2023-05-07T16:12:32.941Z,93687.88
2023-05-07T16:17:40.249Z,93703.15
2023-05-07T16:22:49.902Z,93704.09
2023-05-07T16:27:56.998Z,93698.88
2023-05-07T16:33:03.868Z,93704.68
2023-05-07T16:38:11.825Z,93708.73
2023-05-07T16:43:18.840Z,93708.58
2023-05-07T16:48:25.632Z,93706.05
2023-05-07T16:53:32.496Z,93713.47
2023-05-07T16:58:39.380Z,93717.42
2023-05-07T17:03:49.413Z,93718.22
2023-05-07T17:08:56.309Z,93724.50
2023-05-07T17:14:05.352Z,93730.64
2023-05-07T17:19:11.618Z,93744.58
2023-05-07T17:24:18.701Z,93744.58
2023-05-07T17:29:25.665Z,93748.78
2023-05-07T17:34:33.107Z,93749.75
2023-05-07T17:39:40.096Z,93751.00
2023-05-07T17:44:47.885Z,93755.45
2023-05-07T17:49:55.675Z,93757.32
2023-05-07T17:55:02.553Z,93754.42
2023-05-07T18:00:11.424Z,93758.66
2023-05-07T18:05:19.007Z,93757.31
2023-05-07T18:10:26.096Z,93763.02
2023-05-07T18:15:33.048Z,93774.17
2023-05-07T18:20:39.887Z,93779.30
2023-05-07T18:25:47.707Z,93777.56
2023-05-07T18:30:54.571Z,93782.94
2023-05-07T18:36:01.690Z,93789.02
2023-05-07T18:41:09.434Z,93794.56
2023-05-07T18:46:16.709Z,93795.28
2023-05-07T18:51:23.932Z,93797.52
2023-05-07T18:56:31.059Z,93800.11
2023-05-07T19:01:37.969Z,93804.58
2023-05-07T19:06:46.239Z,93809.78
2023-05-07T19:11:53.716Z,93820.00
2023-05-07T19:17:00.898Z,93815.38
2023-05-07T19:22:07.714Z,93816.16
2023-05-07T19:27:14.804Z,93824.00
2023-05-07T19:32:21.813Z,93822.66
2023-05-07T19:37:28.847Z,93829.78
2023-05-07T19:42:35.980Z,93833.05
2023-05-07T19:47:42.992Z,93839.09
2023-05-07T19:52:50.346Z,93832.11
2023-05-07T19:57:57.443Z,93840.88
2023-05-07T20:03:05.321Z,93841.88
2023-05-07T20:08:12.436Z,93850.97
2023-05-07T20:13:19.955Z,93845.63
2023-05-07T20:18:27.855Z,93849.34
2023-05-07T20:23:34.986Z,93851.86
2023-05-07T20:28:42.047Z,93844.44
2023-05-07T20:33:49.314Z,93844.84
2023-05-07T20:38:56.657Z,93841.34
2023-05-07T20:44:03.580Z,93838.78
2023-05-07T20:49:10.608Z,93837.23
2023-05-07T20:54:17.727Z,93834.22
2023-05-07T20:59:25.727Z,93827.23
2023-05-07T21:04:32.909Z,93825.05
2023-05-07T21:09:40.014Z,93821.50
2023-05-07T21:14:46.938Z,93830.56
2023-05-07T21:19:55.117Z,93828.72
2023-05-07T21:25:03.190Z,93831.35
2023-05-07T21:30:12.165Z,93841.61
2023-05-07T21:35:19.783Z,93842.27
2023-05-07T21:40:26.846Z,93837.45
2023-05-07T21:45:33.953Z,93842.69
2023-05-07T21:50:40.780Z,93837.05
2023-05-07T21:55:47.702Z,93847.95
2023-05-07T22:00:55.128Z,93842.05
2023-05-07T22:06:28.994Z,93844.94
2023-05-07T22:11:36.160Z,93841.19
2023-05-07T22:16:43.000Z,93838.47
2023-05-07T22:21:49.805Z,93841.89
2023-05-07T22:26:56.689Z,93840.59
2023-05-07T22:32:03.951Z,93845.33
2023-05-07T22:37:11.090Z,93843.23
2023-05-07T22:42:17.970Z,93841.89
2023-05-07T22:47:25.559Z,93847.09
2023-05-07T22:52:32.847Z,93846.69
2023-05-07T22:57:40.174Z,93844.47
2023-05-07T23:02:47.869Z,93845.00
2023-05-07T23:07:54.942Z,93839.42
2023-05-07T23:13:03.520Z,93847.89
2023-05-07T23:18:10.759Z,93859.64
2023-05-07T23:23:18.112Z,93845.77
2023-05-07T23:28:25.776Z,93839.86
2023-05-07T23:33:32.629Z,93840.31
2023-05-07T23:38:39.511Z,93830.31
2023-05-07T23:43:47.618Z,93832.97
2023-05-07T23:48:54.444Z,93825.39
2023-05-07T23:54:01.478Z,93819.87
2023-05-07T23:59:08.937Z,93819.94
